sensor_id;sensor_type;location;lat;lon;timestamp;P1;durP1;ratioP1;P2;durP2;ratioP2
51122;SDS011;37162;41.724;13.346;2023-02-01T00:01:32;3.83;;;2.72;;
51122;SDS011;37162;41.724;13.346;2023-02-01T00:03:58;4.72;;;2.90;;
51122;SDS011;37162;41.724;13.346;2023-02-01T00:06:23;3.58;;;2.72;;
51122;SDS011;37162;41.724;13.346;2023-02-01T00:08:51;4.43;;;3.10;;
51122;SDS011;37162;41.724;13.346;2023-02-01T00:11:17;3.88;;;3.00;;
51122;SDS011;37162;41.724;13.346;2023-02-01T00:13:43;3.85;;;3.05;;
51122;SDS011;37162;41.724;13.346;2023-02-01T00:16:09;4.45;;;2.55;;
51122;SDS011;37162;41.724;13.346;2023-02-01T00:19:02;3.38;;;3.08;;
51122;SDS011;37162;41.724;13.346;2023-02-01T00:21:38;5.18;;;2.70;;
51122;SDS011;37162;41.724;13.346;2023-02-01T00:24:03;3.63;;;2.70;;
51122;SDS011;37162;41.724;13.346;2023-02-01T00:26:33;4.93;;;3.22;;
51122;SDS011;37162;41.724;13.346;2023-02-01T00:29:01;3.63;;;2.70;;
51122;SDS011;37162;41.724;13.346;2023-02-01T00:31:29;3.30;;;2.80;;
51122;SDS011;37162;41.724;13.346;2023-02-01T00:33:54;3.13;;;2.58;;
51122;SDS011;37162;41.724;13.346;2023-02-01T00:36:20;3.25;;;2.63;;
51122;SDS011;37162;41.724;13.346;2023-02-01T00:38:45;3.63;;;2.47;;
51122;SDS011;37162;41.724;13.346;2023-02-01T00:43:38;4.53;;;3.00;;
51122;SDS011;37162;41.724;13.346;2023-02-01T00:46:04;3.67;;;2.58;;
51122;SDS011;37162;41.724;13.346;2023-02-01T00:48:30;3.88;;;2.70;;
51122;SDS011;37162;41.724;13.346;2023-02-01T00:51:03;3.15;;;2.53;;
51122;SDS011;37162;41.724;13.346;2023-02-01T00:53:30;3.10;;;2.03;;
51122;SDS011;37162;41.724;13.346;2023-02-01T00:55:56;3.72;;;2.60;;
51122;SDS011;37162;41.724;13.346;2023-02-01T00:58:22;3.50;;;2.17;;
51122;SDS011;37162;41.724;13.346;2023-02-01T01:03:39;3.40;;;2.45;;
51122;SDS011;37162;41.724;13.346;2023-02-01T01:06:08;4.60;;;3.05;;
51122;SDS011;37162;41.724;13.346;2023-02-01T01:08:35;5.20;;;2.45;;
51122;SDS011;37162;41.724;13.346;2023-02-01T01:11:11;3.78;;;2.40;;
51122;SDS011;37162;41.724;13.346;2023-02-01T01:13:42;3.40;;;2.42;;
51122;SDS011;37162;41.724;13.346;2023-02-01T01:16:08;3.28;;;2.38;;
51122;SDS011;37162;41.724;13.346;2023-02-01T01:18:35;3.45;;;2.30;;
51122;SDS011;37162;41.724;13.346;2023-02-01T01:21:03;4.47;;;2.65;;
51122;SDS011;37162;41.724;13.346;2023-02-01T01:23:30;4.18;;;2.83;;
51122;SDS011;37162;41.724;13.346;2023-02-01T01:25:55;3.38;;;2.28;;
51122;SDS011;37162;41.724;13.346;2023-02-01T01:28:21;3.88;;;2.90;;
51122;SDS011;37162;41.724;13.346;2023-02-01T01:30:46;3.42;;;2.47;;
51122;SDS011;37162;41.724;13.346;2023-02-01T01:33:12;3.53;;;2.33;;
51122;SDS011;37162;41.724;13.346;2023-02-01T01:35:37;2.42;;;1.98;;
51122;SDS011;37162;41.724;13.346;2023-02-01T01:38:03;3.60;;;2.88;;
51122;SDS011;37162;41.724;13.346;2023-02-01T01:40:29;3.05;;;2.30;;
51122;SDS011;37162;41.724;13.346;2023-02-01T01:42:55;3.45;;;2.40;;
51122;SDS011;37162;41.724;13.346;2023-02-01T01:45:28;2.13;;;1.90;;
51122;SDS011;37162;41.724;13.346;2023-02-01T01:50:50;2.90;;;2.05;;
51122;SDS011;37162;41.724;13.346;2023-02-01T01:53:23;3.22;;;2.22;;
51122;SDS011;37162;41.724;13.346;2023-02-01T01:55:53;2.75;;;2.13;;
51122;SDS011;37162;41.724;13.346;2023-02-01T01:58:21;3.25;;;2.17;;
51122;SDS011;37162;41.724;13.346;2023-02-01T02:00:50;4.30;;;2.42;;
51122;SDS011;37162;41.724;13.346;2023-02-01T02:03:19;3.05;;;2.13;;
51122;SDS011;37162;41.724;13.346;2023-02-01T02:05:48;2.40;;;2.00;;
51122;SDS011;37162;41.724;13.346;2023-02-01T02:08:16;2.65;;;2.03;;
51122;SDS011;37162;41.724;13.346;2023-02-01T02:10:45;3.03;;;2.20;;
51122;SDS011;37162;41.724;13.346;2023-02-01T02:13:46;2.65;;;2.10;;
51122;SDS011;37162;41.724;13.346;2023-02-01T02:38:32;3.40;;;2.05;;
51122;SDS011;37162;41.724;13.346;2023-02-01T02:41:11;2.60;;;1.95;;
51122;SDS011;37162;41.724;13.346;2023-02-01T02:44:04;2.60;;;1.45;;
51122;SDS011;37162;41.724;13.346;2023-02-01T02:49:51;3.45;;;1.75;;
51122;SDS011;37162;41.724;13.346;2023-02-01T02:52:42;2.97;;;1.90;;
51122;SDS011;37162;41.724;13.346;2023-02-01T02:55:36;3.95;;;2.00;;
51122;SDS011;37162;41.724;13.346;2023-02-01T02:58:05;1.88;;;1.65;;
51122;SDS011;37162;41.724;13.346;2023-02-01T03:00:52;2.80;;;1.80;;
51122;SDS011;37162;41.724;13.346;2023-02-01T03:03:37;2.78;;;1.95;;
51122;SDS011;37162;41.724;13.346;2023-02-01T03:06:22;3.22;;;1.88;;
51122;SDS011;37162;41.724;13.346;2023-02-01T03:08:49;2.40;;;1.67;;
51122;SDS011;37162;41.724;13.346;2023-02-01T03:11:18;1.88;;;1.40;;
51122;SDS011;37162;41.724;13.346;2023-02-01T03:13:46;2.22;;;1.77;;
51122;SDS011;37162;41.724;13.346;2023-02-01T03:16:57;2.05;;;1.58;;
51122;SDS011;37162;41.724;13.346;2023-02-01T03:19:25;2.17;;;1.55;;
51122;SDS011;37162;41.724;13.346;2023-02-01T03:21:57;2.88;;;1.80;;
51122;SDS011;37162;41.724;13.346;2023-02-01T03:24:31;2.13;;;1.88;;
51122;SDS011;37162;41.724;13.346;2023-02-01T03:27:47;1.95;;;1.70;;
51122;SDS011;37162;41.724;13.346;2023-02-01T03:32:35;1.90;;;1.58;;
51122;SDS011;37162;41.724;13.346;2023-02-01T03:38:08;2.33;;;1.60;;
51122;SDS011;37162;41.724;13.346;2023-02-01T03:40:43;2.45;;;1.70;;
51122;SDS011;37162;41.724;13.346;2023-02-01T03:43:12;2.63;;;1.88;;
51122;SDS011;37162;41.724;13.346;2023-02-01T03:45:46;1.58;;;1.20;;
51122;SDS011;37162;41.724;13.346;2023-02-01T03:48:17;2.55;;;1.77;;
51122;SDS011;37162;41.724;13.346;2023-02-01T03:50:45;2.83;;;1.73;;
51122;SDS011;37162;41.724;13.346;2023-02-01T03:53:15;1.65;;;1.42;;
51122;SDS011;37162;41.724;13.346;2023-02-01T03:55:44;2.10;;;1.52;;
51122;SDS011;37162;41.724;13.346;2023-02-01T03:58:14;2.67;;;1.60;;
51122;SDS011;37162;41.724;13.346;2023-02-01T04:00:44;2.72;;;1.80;;
51122;SDS011;37162;41.724;13.346;2023-02-01T04:03:14;2.03;;;1.67;;
51122;SDS011;37162;41.724;13.346;2023-02-01T04:05:40;1.70;;;1.60;;
51122;SDS011;37162;41.724;13.346;2023-02-01T04:08:05;2.60;;;1.83;;
51122;SDS011;37162;41.724;13.346;2023-02-01T04:10:31;2.33;;;1.48;;
51122;SDS011;37162;41.724;13.346;2023-02-01T04:12:56;1.63;;;1.48;;
51122;SDS011;37162;41.724;13.346;2023-02-01T04:15:22;2.53;;;1.60;;
51122;SDS011;37162;41.724;13.346;2023-02-01T04:17:47;1.70;;;1.40;;
51122;SDS011;37162;41.724;13.346;2023-02-01T04:20:13;1.85;;;1.70;;
51122;SDS011;37162;41.724;13.346;2023-02-01T04:22:38;2.00;;;1.52;;
51122;SDS011;37162;41.724;13.346;2023-02-01T04:25:04;1.73;;;1.60;;
51122;SDS011;37162;41.724;13.346;2023-02-01T04:27:33;1.40;;;1.30;;
51122;SDS011;37162;41.724;13.346;2023-02-01T04:29:58;2.45;;;1.50;;
51122;SDS011;37162;41.724;13.346;2023-02-01T04:32:24;1.90;;;1.52;;
51122;SDS011;37162;41.724;13.346;2023-02-01T04:34:49;1.75;;;1.50;;
51122;SDS011;37162;41.724;13.346;2023-02-01T04:37:15;3.17;;;1.50;;
51122;SDS011;37162;41.724;13.346;2023-02-01T04:39:40;2.67;;;1.45;;
51122;SDS011;37162;41.724;13.346;2023-02-01T04:42:06;2.35;;;1.60;;
51122;SDS011;37162;41.724;13.346;2023-02-01T04:44:31;1.85;;;1.70;;
51122;SDS011;37162;41.724;13.346;2023-02-01T04:46:57;2.05;;;1.38;;
51122;SDS011;37162;41.724;13.346;2023-02-01T04:49:23;3.13;;;1.35;;
51122;SDS011;37162;41.724;13.346;2023-02-01T04:51:50;2.40;;;1.63;;
51122;SDS011;37162;41.724;13.346;2023-02-01T04:54:15;1.63;;;1.48;;
51122;SDS011;37162;41.724;13.346;2023-02-01T04:56:41;1.45;;;1.35;;
51122;SDS011;37162;41.724;13.346;2023-02-01T04:59:06;1.88;;;1.60;;
51122;SDS011;37162;41.724;13.346;2023-02-01T05:01:32;2.28;;;1.60;;
51122;SDS011;37162;41.724;13.346;2023-02-01T05:03:57;2.05;;;1.40;;
51122;SDS011;37162;41.724;13.346;2023-02-01T05:06:23;2.92;;;1.80;;
51122;SDS011;37162;41.724;13.346;2023-02-01T05:08:49;2.20;;;1.42;;
51122;SDS011;37162;41.724;13.346;2023-02-01T05:11:14;2.70;;;1.60;;
51122;SDS011;37162;41.724;13.346;2023-02-01T05:13:59;2.03;;;1.60;;
51122;SDS011;37162;41.724;13.346;2023-02-01T05:16:25;2.08;;;1.45;;
51122;SDS011;37162;41.724;13.346;2023-02-01T05:18:50;2.75;;;1.73;;
51122;SDS011;37162;41.724;13.346;2023-02-01T05:21:16;1.90;;;1.40;;
51122;SDS011;37162;41.724;13.346;2023-02-01T05:23:42;2.33;;;1.80;;
51122;SDS011;37162;41.724;13.346;2023-02-01T05:26:26;1.98;;;1.40;;
51122;SDS011;37162;41.724;13.346;2023-02-01T05:28:51;1.50;;;1.20;;
51122;SDS011;37162;41.724;13.346;2023-02-01T05:31:17;1.55;;;1.45;;
51122;SDS011;37162;41.724;13.346;2023-02-01T05:33:42;1.63;;;1.25;;
51122;SDS011;37162;41.724;13.346;2023-02-01T05:36:08;1.90;;;1.50;;
51122;SDS011;37162;41.724;13.346;2023-02-01T05:38:33;2.40;;;1.80;;
51122;SDS011;37162;41.724;13.346;2023-02-01T05:40:59;2.38;;;1.65;;
51122;SDS011;37162;41.724;13.346;2023-02-01T05:43:24;1.50;;;1.38;;
51122;SDS011;37162;41.724;13.346;2023-02-01T05:45:51;1.55;;;1.45;;
51122;SDS011;37162;41.724;13.346;2023-02-01T05:48:17;1.75;;;1.40;;
51122;SDS011;37162;41.724;13.346;2023-02-01T05:50:43;2.10;;;1.45;;
51122;SDS011;37162;41.724;13.346;2023-02-01T05:53:09;2.38;;;1.58;;
51122;SDS011;37162;41.724;13.346;2023-02-01T05:55:34;1.85;;;1.42;;
51122;SDS011;37162;41.724;13.346;2023-02-01T05:58:00;1.60;;;1.38;;
51122;SDS011;37162;41.724;13.346;2023-02-01T06:00:26;1.73;;;1.55;;
51122;SDS011;37162;41.724;13.346;2023-02-01T06:02:51;1.45;;;1.20;;
51122;SDS011;37162;41.724;13.346;2023-02-01T06:05:17;1.80;;;1.50;;
51122;SDS011;37162;41.724;13.346;2023-02-01T06:07:42;2.30;;;1.40;;
51122;SDS011;37162;41.724;13.346;2023-02-01T06:10:08;1.67;;;1.55;;
51122;SDS011;37162;41.724;13.346;2023-02-01T06:12:34;1.55;;;1.27;;
51122;SDS011;37162;41.724;13.346;2023-02-01T06:15:00;1.40;;;1.30;;
51122;SDS011;37162;41.724;13.346;2023-02-01T06:17:25;2.33;;;1.50;;
51122;SDS011;37162;41.724;13.346;2023-02-01T06:19:51;2.05;;;1.27;;
51122;SDS011;37162;41.724;13.346;2023-02-01T06:22:16;1.65;;;1.50;;
51122;SDS011;37162;41.724;13.346;2023-02-01T06:24:42;2.38;;;1.48;;
51122;SDS011;37162;41.724;13.346;2023-02-01T06:27:08;1.90;;;1.35;;
51122;SDS011;37162;41.724;13.346;2023-02-01T06:29:34;1.40;;;1.33;;
51122;SDS011;37162;41.724;13.346;2023-02-01T06:32:00;2.50;;;1.55;;
51122;SDS011;37162;41.724;13.346;2023-02-01T06:34:25;2.40;;;1.42;;
51122;SDS011;37162;41.724;13.346;2023-02-01T06:36:51;1.55;;;1.45;;
51122;SDS011;37162;41.724;13.346;2023-02-01T06:39:16;1.85;;;1.58;;
51122;SDS011;37162;41.724;13.346;2023-02-01T06:41:42;1.50;;;1.40;;
51122;SDS011;37162;41.724;13.346;2023-02-01T06:44:11;1.80;;;1.27;;
51122;SDS011;37162;41.724;13.346;2023-02-01T06:46:36;2.20;;;1.48;;
51122;SDS011;37162;41.724;13.346;2023-02-01T06:49:02;2.25;;;1.92;;
51122;SDS011;37162;41.724;13.346;2023-02-01T06:51:27;1.70;;;1.40;;
51122;SDS011;37162;41.724;13.346;2023-02-01T06:53:54;1.80;;;1.30;;
51122;SDS011;37162;41.724;13.346;2023-02-01T06:56:20;1.85;;;1.55;;
51122;SDS011;37162;41.724;13.346;2023-02-01T06:58:45;1.80;;;1.50;;
51122;SDS011;37162;41.724;13.346;2023-02-01T07:01:11;2.72;;;1.63;;
51122;SDS011;37162;41.724;13.346;2023-02-01T07:03:37;2.25;;;1.55;;
51122;SDS011;37162;41.724;13.346;2023-02-01T07:06:03;2.15;;;1.90;;
51122;SDS011;37162;41.724;13.346;2023-02-01T07:08:30;1.92;;;1.48;;
51122;SDS011;37162;41.724;13.346;2023-02-01T07:10:56;1.40;;;1.30;;
51122;SDS011;37162;41.724;13.346;2023-02-01T07:13:25;2.95;;;1.70;;
51122;SDS011;37162;41.724;13.346;2023-02-01T07:15:51;1.95;;;1.60;;
51122;SDS011;37162;41.724;13.346;2023-02-01T07:18:16;3.17;;;1.88;;
51122;SDS011;37162;41.724;13.346;2023-02-01T07:20:42;2.45;;;1.83;;
51122;SDS011;37162;41.724;13.346;2023-02-01T07:23:10;2.15;;;1.60;;
51122;SDS011;37162;41.724;13.346;2023-02-01T07:25:36;1.90;;;1.70;;
51122;SDS011;37162;41.724;13.346;2023-02-01T07:28:01;2.30;;;1.60;;
51122;SDS011;37162;41.724;13.346;2023-02-01T07:30:27;3.80;;;1.85;;
51122;SDS011;37162;41.724;13.346;2023-02-01T07:32:52;2.15;;;1.70;;
51122;SDS011;37162;41.724;13.346;2023-02-01T07:35:18;3.65;;;1.60;;
51122;SDS011;37162;41.724;13.346;2023-02-01T07:37:43;2.55;;;1.65;;
51122;SDS011;37162;41.724;13.346;2023-02-01T07:40:09;2.53;;;1.80;;
51122;SDS011;37162;41.724;13.346;2023-02-01T07:42:35;3.50;;;1.88;;
51122;SDS011;37162;41.724;13.346;2023-02-01T07:45:00;1.67;;;1.58;;
51122;SDS011;37162;41.724;13.346;2023-02-01T07:47:27;2.47;;;1.88;;
51122;SDS011;37162;41.724;13.346;2023-02-01T07:49:52;2.22;;;1.60;;
51122;SDS011;37162;41.724;13.346;2023-02-01T07:52:18;3.63;;;2.10;;
51122;SDS011;37162;41.724;13.346;2023-02-01T07:54:43;2.65;;;2.20;;
51122;SDS011;37162;41.724;13.346;2023-02-01T07:57:09;3.80;;;2.15;;
51122;SDS011;37162;41.724;13.346;2023-02-01T07:59:36;2.88;;;2.08;;
51122;SDS011;37162;41.724;13.346;2023-02-01T08:02:22;2.10;;;1.85;;
51122;SDS011;37162;41.724;13.346;2023-02-01T08:04:47;2.70;;;1.80;;
51122;SDS011;37162;41.724;13.346;2023-02-01T08:07:13;2.47;;;1.92;;
51122;SDS011;37162;41.724;13.346;2023-02-01T08:09:38;2.90;;;2.40;;
51122;SDS011;37162;41.724;13.346;2023-02-01T08:12:04;3.60;;;2.35;;
51122;SDS011;37162;41.724;13.346;2023-02-01T08:14:29;2.72;;;2.13;;
51122;SDS011;37162;41.724;13.346;2023-02-01T08:16:55;3.22;;;2.40;;
51122;SDS011;37162;41.724;13.346;2023-02-01T08:19:20;3.65;;;2.35;;
51122;SDS011;37162;41.724;13.346;2023-02-01T08:21:46;3.97;;;2.47;;
51122;SDS011;37162;41.724;13.346;2023-02-01T08:24:13;3.83;;;2.20;;
51122;SDS011;37162;41.724;13.346;2023-02-01T08:26:39;3.00;;;2.28;;
51122;SDS011;37162;41.724;13.346;2023-02-01T08:29:05;3.15;;;2.20;;
51122;SDS011;37162;41.724;13.346;2023-02-01T08:31:34;3.13;;;2.63;;
51122;SDS011;37162;41.724;13.346;2023-02-01T08:34:05;5.03;;;2.80;;
51122;SDS011;37162;41.724;13.346;2023-02-01T08:36:33;4.47;;;2.97;;
51122;SDS011;37162;41.724;13.346;2023-02-01T08:38:58;3.63;;;2.78;;
51122;SDS011;37162;41.724;13.346;2023-02-01T08:41:25;5.32;;;2.78;;
51122;SDS011;37162;41.724;13.346;2023-02-01T08:43:52;4.90;;;3.40;;
51122;SDS011;37162;41.724;13.346;2023-02-01T08:46:19;4.72;;;3.17;;
51122;SDS011;37162;41.724;13.346;2023-02-01T08:48:47;4.35;;;3.15;;
51122;SDS011;37162;41.724;13.346;2023-02-01T08:51:14;4.78;;;2.97;;
51122;SDS011;37162;41.724;13.346;2023-02-01T08:53:42;4.90;;;3.55;;
51122;SDS011;37162;41.724;13.346;2023-02-01T08:56:12;4.03;;;3.30;;
51122;SDS011;37162;41.724;13.346;2023-02-01T08:58:39;5.00;;;3.38;;
51122;SDS011;37162;41.724;13.346;2023-02-01T09:01:05;5.72;;;3.85;;
51122;SDS011;37162;41.724;13.346;2023-02-01T09:03:32;4.82;;;3.83;;
51122;SDS011;37162;41.724;13.346;2023-02-01T09:06:01;5.97;;;4.25;;
51122;SDS011;37162;41.724;13.346;2023-02-01T09:08:34;7.90;;;4.38;;
51122;SDS011;37162;41.724;13.346;2023-02-01T09:11:05;5.93;;;4.00;;
51122;SDS011;37162;41.724;13.346;2023-02-01T09:13:33;6.95;;;4.22;;
51122;SDS011;37162;41.724;13.346;2023-02-01T09:16:01;6.03;;;3.40;;
51122;SDS011;37162;41.724;13.346;2023-02-01T09:18:28;7.55;;;4.38;;
51122;SDS011;37162;41.724;13.346;2023-02-01T09:20:53;7.22;;;4.55;;
51122;SDS011;37162;41.724;13.346;2023-02-01T09:23:18;7.88;;;4.53;;
51122;SDS011;37162;41.724;13.346;2023-02-01T09:25:45;7.85;;;4.25;;
51122;SDS011;37162;41.724;13.346;2023-02-01T09:28:11;6.22;;;4.35;;
51122;SDS011;37162;41.724;13.346;2023-02-01T09:30:36;5.53;;;4.05;;
51122;SDS011;37162;41.724;13.346;2023-02-01T09:33:02;4.47;;;3.70;;
51122;SDS011;37162;41.724;13.346;2023-02-01T09:35:28;4.90;;;3.78;;
51122;SDS011;37162;41.724;13.346;2023-02-01T09:37:54;6.32;;;3.80;;
51122;SDS011;37162;41.724;13.346;2023-02-01T09:40:20;7.18;;;4.00;;
51122;SDS011;37162;41.724;13.346;2023-02-01T09:42:54;5.88;;;3.90;;
51122;SDS011;37162;41.724;13.346;2023-02-01T09:45:36;6.97;;;4.63;;
51122;SDS011;37162;41.724;13.346;2023-02-01T09:48:29;8.48;;;4.30;;
51122;SDS011;37162;41.724;13.346;2023-02-01T09:50:58;6.22;;;4.43;;
51122;SDS011;37162;41.724;13.346;2023-02-01T09:55:58;7.95;;;4.65;;
51122;SDS011;37162;41.724;13.346;2023-02-01T10:01:05;7.22;;;5.18;;
51122;SDS011;37162;41.724;13.346;2023-02-01T10:03:40;7.32;;;5.18;;
51122;SDS011;37162;41.724;13.346;2023-02-01T10:22:16;10.35;;;5.80;;
51122;SDS011;37162;41.724;13.346;2023-02-01T10:25:05;8.23;;;5.25;;
51122;SDS011;37162;41.724;13.346;2023-02-01T10:27:41;10.10;;;5.15;;
51122;SDS011;37162;41.724;13.346;2023-02-01T10:30:23;9.10;;;5.80;;
51122;SDS011;37162;41.724;13.346;2023-02-01T10:33:01;8.55;;;5.47;;
51122;SDS011;37162;41.724;13.346;2023-02-01T10:35:42;9.23;;;5.88;;
51122;SDS011;37162;41.724;13.346;2023-02-01T10:38:17;8.40;;;5.82;;
51122;SDS011;37162;41.724;13.346;2023-02-01T10:40:50;9.93;;;5.63;;
51122;SDS011;37162;41.724;13.346;2023-02-01T10:43:18;9.30;;;5.55;;
51122;SDS011;37162;41.724;13.346;2023-02-01T10:45:43;8.15;;;6.15;;
51122;SDS011;37162;41.724;13.346;2023-02-01T10:48:09;12.95;;;6.80;;
51122;SDS011;37162;41.724;13.346;2023-02-01T10:55:55;12.23;;;6.00;;
51122;SDS011;37162;41.724;13.346;2023-02-01T10:58:28;12.02;;;5.63;;
51122;SDS011;37162;41.724;13.346;2023-02-01T11:00:57;9.15;;;6.32;;
51122;SDS011;37162;41.724;13.346;2023-02-01T11:06:17;6.45;;;5.20;;
51122;SDS011;37162;41.724;13.346;2023-02-01T11:08:47;7.95;;;5.70;;
51122;SDS011;37162;41.724;13.346;2023-02-01T11:11:15;9.25;;;6.10;;
51122;SDS011;37162;41.724;13.346;2023-02-01T11:13:41;10.90;;;6.28;;
51122;SDS011;37162;41.724;13.346;2023-02-01T11:16:08;9.63;;;6.00;;
51122;SDS011;37162;41.724;13.346;2023-02-01T11:18:37;8.50;;;5.57;;
51122;SDS011;37162;41.724;13.346;2023-02-01T11:21:07;8.90;;;6.38;;
51122;SDS011;37162;41.724;13.346;2023-02-01T11:23:36;8.43;;;6.20;;
51122;SDS011;37162;41.724;13.346;2023-02-01T11:26:20;8.05;;;6.25;;
51122;SDS011;37162;41.724;13.346;2023-02-01T11:28:53;9.30;;;6.47;;
51122;SDS011;37162;41.724;13.346;2023-02-01T11:31:25;10.18;;;7.20;;
51122;SDS011;37162;41.724;13.346;2023-02-01T11:33:53;14.10;;;7.53;;
51122;SDS011;37162;41.724;13.346;2023-02-01T11:36:45;12.13;;;6.70;;
51122;SDS011;37162;41.724;13.346;2023-02-01T11:42:19;10.13;;;6.90;;
51122;SDS011;37162;41.724;13.346;2023-02-01T11:44:44;10.55;;;7.30;;
51122;SDS011;37162;41.724;13.346;2023-02-01T11:47:27;9.65;;;6.07;;
51122;SDS011;37162;41.724;13.346;2023-02-01T11:50:00;9.80;;;6.70;;
51122;SDS011;37162;41.724;13.346;2023-02-01T12:00:31;9.75;;;6.38;;
51122;SDS011;37162;41.724;13.346;2023-02-01T12:03:14;10.30;;;6.03;;
51122;SDS011;37162;41.724;13.346;2023-02-01T12:06:08;8.30;;;5.97;;
51122;SDS011;37162;41.724;13.346;2023-02-01T12:22:42;7.55;;;5.32;;
51122;SDS011;37162;41.724;13.346;2023-02-01T12:38:55;6.20;;;4.55;;
51122;SDS011;37162;41.724;13.346;2023-02-01T12:46:35;7.13;;;4.75;;
51122;SDS011;37162;41.724;13.346;2023-02-01T12:49:10;7.32;;;5.50;;
51122;SDS011;37162;41.724;13.346;2023-02-01T12:51:41;8.55;;;6.18;;
51122;SDS011;37162;41.724;13.346;2023-02-01T12:56:56;10.48;;;6.22;;
51122;SDS011;37162;41.724;13.346;2023-02-01T13:12:43;6.78;;;4.57;;
51122;SDS011;37162;41.724;13.346;2023-02-01T13:18:03;7.63;;;5.35;;
51122;SDS011;37162;41.724;13.346;2023-02-01T13:20:41;7.68;;;4.78;;
51122;SDS011;37162;41.724;13.346;2023-02-01T13:25:52;6.38;;;5.20;;
51122;SDS011;37162;41.724;13.346;2023-02-01T13:28:29;10.50;;;4.85;;
51122;SDS011;37162;41.724;13.346;2023-02-01T13:42:25;7.85;;;5.25;;
51122;SDS011;37162;41.724;13.346;2023-02-01T13:45:05;6.10;;;4.40;;
51122;SDS011;37162;41.724;13.346;2023-02-01T13:47:40;5.43;;;4.07;;
51122;SDS011;37162;41.724;13.346;2023-02-01T13:50:22;6.53;;;4.40;;
51122;SDS011;37162;41.724;13.346;2023-02-01T13:53:11;5.90;;;4.65;;
51122;SDS011;37162;41.724;13.346;2023-02-01T13:58:17;6.28;;;4.32;;
51122;SDS011;37162;41.724;13.346;2023-02-01T14:00:46;6.90;;;4.15;;
51122;SDS011;37162;41.724;13.346;2023-02-01T14:08:13;8.00;;;4.72;;
51122;SDS011;37162;41.724;13.346;2023-02-01T14:10:53;6.00;;;4.53;;
51122;SDS011;37162;41.724;13.346;2023-02-01T14:13:41;7.63;;;4.45;;
51122;SDS011;37162;41.724;13.346;2023-02-01T14:16:11;5.80;;;4.32;;
51122;SDS011;37162;41.724;13.346;2023-02-01T14:26:19;5.93;;;4.43;;
51122;SDS011;37162;41.724;13.346;2023-02-01T14:28:52;6.32;;;4.00;;
51122;SDS011;37162;41.724;13.346;2023-02-01T14:31:29;6.25;;;4.00;;
51122;SDS011;37162;41.724;13.346;2023-02-01T14:34:00;6.00;;;4.20;;
51122;SDS011;37162;41.724;13.346;2023-02-01T14:36:41;8.52;;;4.10;;
51122;SDS011;37162;41.724;13.346;2023-02-01T14:39:19;6.00;;;4.15;;
51122;SDS011;37162;41.724;13.346;2023-02-01T14:47:54;5.88;;;3.88;;
51122;SDS011;37162;41.724;13.346;2023-02-01T14:50:40;6.20;;;4.15;;
51122;SDS011;37162;41.724;13.346;2023-02-01T15:14:28;5.35;;;3.97;;
51122;SDS011;37162;41.724;13.346;2023-02-01T15:16:59;6.35;;;4.78;;
51122;SDS011;37162;41.724;13.346;2023-02-01T15:19:25;7.03;;;4.40;;
51122;SDS011;37162;41.724;13.346;2023-02-01T15:21:53;5.55;;;4.38;;
51122;SDS011;37162;41.724;13.346;2023-02-01T15:24:25;6.25;;;4.28;;
51122;SDS011;37162;41.724;13.346;2023-02-01T15:26:55;6.88;;;4.45;;
51122;SDS011;37162;41.724;13.346;2023-02-01T15:29:26;6.00;;;4.88;;
51122;SDS011;37162;41.724;13.346;2023-02-01T15:31:57;6.45;;;4.35;;
51122;SDS011;37162;41.724;13.346;2023-02-01T15:34:23;7.78;;;4.72;;
51122;SDS011;37162;41.724;13.346;2023-02-01T15:37:12;7.40;;;5.07;;
51122;SDS011;37162;41.724;13.346;2023-02-01T15:40:02;5.95;;;4.70;;
51122;SDS011;37162;41.724;13.346;2023-02-01T15:42:38;6.78;;;5.07;;
51122;SDS011;37162;41.724;13.346;2023-02-01T15:45:21;7.53;;;5.15;;
51122;SDS011;37162;41.724;13.346;2023-02-01T15:47:51;7.60;;;5.25;;
51122;SDS011;37162;41.724;13.346;2023-02-01T15:50:20;7.75;;;5.10;;
51122;SDS011;37162;41.724;13.346;2023-02-01T15:52:49;6.95;;;5.07;;
51122;SDS011;37162;41.724;13.346;2023-02-01T15:55:18;7.10;;;4.78;;
51122;SDS011;37162;41.724;13.346;2023-02-01T15:57:47;8.02;;;5.53;;
51122;SDS011;37162;41.724;13.346;2023-02-01T16:00:21;6.38;;;5.32;;
51122;SDS011;37162;41.724;13.346;2023-02-01T16:02:56;7.50;;;5.40;;
51122;SDS011;37162;41.724;13.346;2023-02-01T16:05:33;7.57;;;5.40;;
51122;SDS011;37162;41.724;13.346;2023-02-01T16:08:13;8.68;;;5.05;;
51122;SDS011;37162;41.724;13.346;2023-02-01T16:10:47;7.13;;;5.45;;
51122;SDS011;37162;41.724;13.346;2023-02-01T16:13:15;7.80;;;5.72;;
51122;SDS011;37162;41.724;13.346;2023-02-01T16:15:41;7.53;;;5.40;;
51122;SDS011;37162;41.724;13.346;2023-02-01T16:18:07;7.50;;;4.75;;
51122;SDS011;37162;41.724;13.346;2023-02-01T16:20:34;7.07;;;5.30;;
51122;SDS011;37162;41.724;13.346;2023-02-01T16:23:01;7.95;;;5.30;;
51122;SDS011;37162;41.724;13.346;2023-02-01T16:25:27;10.38;;;6.35;;
51122;SDS011;37162;41.724;13.346;2023-02-01T16:27:52;7.22;;;5.45;;
51122;SDS011;37162;41.724;13.346;2023-02-01T16:30:24;6.75;;;4.80;;
51122;SDS011;37162;41.724;13.346;2023-02-01T16:32:53;9.60;;;5.43;;
51122;SDS011;37162;41.724;13.346;2023-02-01T16:35:24;6.03;;;4.90;;
51122;SDS011;37162;41.724;13.346;2023-02-01T16:37:51;9.65;;;5.47;;
51122;SDS011;37162;41.724;13.346;2023-02-01T16:40:19;7.55;;;5.55;;
51122;SDS011;37162;41.724;13.346;2023-02-01T16:42:47;9.88;;;5.90;;
51122;SDS011;37162;41.724;13.346;2023-02-01T16:45:14;8.15;;;5.72;;
51122;SDS011;37162;41.724;13.346;2023-02-01T16:47:40;8.00;;;6.05;;
51122;SDS011;37162;41.724;13.346;2023-02-01T16:50:16;8.52;;;5.72;;
51122;SDS011;37162;41.724;13.346;2023-02-01T16:52:43;8.35;;;5.88;;
51122;SDS011;37162;41.724;13.346;2023-02-01T16:55:12;8.80;;;6.00;;
51122;SDS011;37162;41.724;13.346;2023-02-01T16:57:40;7.10;;;5.75;;
51122;SDS011;37162;41.724;13.346;2023-02-01T17:00:07;7.97;;;6.10;;
51122;SDS011;37162;41.724;13.346;2023-02-01T17:02:33;7.60;;;5.63;;
51122;SDS011;37162;41.724;13.346;2023-02-01T17:04:59;8.80;;;6.07;;
51122;SDS011;37162;41.724;13.346;2023-02-01T17:07:24;9.35;;;5.78;;
51122;SDS011;37162;41.724;13.346;2023-02-01T17:09:51;9.27;;;6.43;;
51122;SDS011;37162;41.724;13.346;2023-02-01T17:12:24;7.55;;;6.00;;
51122;SDS011;37162;41.724;13.346;2023-02-01T17:14:52;8.60;;;5.80;;
51122;SDS011;37162;41.724;13.346;2023-02-01T17:17:18;8.00;;;5.88;;
51122;SDS011;37162;41.724;13.346;2023-02-01T17:19:45;6.40;;;5.30;;
51122;SDS011;37162;41.724;13.346;2023-02-01T17:22:15;9.02;;;6.50;;
51122;SDS011;37162;41.724;13.346;2023-02-01T17:24:40;9.13;;;6.10;;
51122;SDS011;37162;41.724;13.346;2023-02-01T17:27:06;7.07;;;5.68;;
51122;SDS011;37162;41.724;13.346;2023-02-01T17:29:32;10.23;;;6.45;;
51122;SDS011;37162;41.724;13.346;2023-02-01T17:31:57;8.43;;;6.25;;
51122;SDS011;37162;41.724;13.346;2023-02-01T17:34:24;8.98;;;6.63;;
51122;SDS011;37162;41.724;13.346;2023-02-01T17:36:50;9.40;;;6.95;;
51122;SDS011;37162;41.724;13.346;2023-02-01T17:39:16;9.57;;;7.35;;
51122;SDS011;37162;41.724;13.346;2023-02-01T17:42:00;9.00;;;7.10;;
51122;SDS011;37162;41.724;13.346;2023-02-01T17:44:25;11.07;;;7.82;;
51122;SDS011;37162;41.724;13.346;2023-02-01T17:46:51;11.60;;;8.30;;
51122;SDS011;37162;41.724;13.346;2023-02-01T17:49:16;9.15;;;7.68;;
51122;SDS011;37162;41.724;13.346;2023-02-01T17:51:42;9.35;;;7.65;;
51122;SDS011;37162;41.724;13.346;2023-02-01T17:54:09;10.75;;;8.10;;
51122;SDS011;37162;41.724;13.346;2023-02-01T17:56:37;12.20;;;8.63;;